Time;durP1;ratioP1;P1;durP2;ratioP2;P2;SDS_P1;SDS_P2;PMS_P1;PMS_P2;Temp;Humidity;BMP_temperature;BMP_pressure;BME280_temperature;BME280_humidity;BME280_pressure;Samples;Min_cycle;Max_cycle;Signal;HPM_P1;HPM_P2
2021/09/15 00:00:40;;;;;;;19.90;11.27;;;;;;;18.54;100.00;101378.81;5051011;28;20693;-73
2021/09/15 00:03:06;;;;;;;19.10;11.60;;;;;;;18.48;100.00;101371.38;5051459;28;20215;-77
2021/09/15 00:05:31;;;;;;;20.20;12.10;;;;;;;18.44;100.00;101372.66;5049982;28;20556;-75
2021/09/15 00:07:57;;;;;;;26.23;12.33;;;;;;;18.45;100.00;101377.00;5045325;28;20212;-73
2021/09/15 00:10:22;;;;;;;21.33;11.47;;;;;;;18.48;100.00;101367.88;5030341;28;20239;-72
2021/09/15 00:12:48;;;;;;;25.37;11.50;;;;;;;18.42;100.00;101373.75;5030596;28;20154;-76
2021/09/15 00:15:13;;;;;;;24.17;11.97;;;;;;;18.44;100.00;101369.13;5030272;28;20585;-75
2021/09/15 00:17:39;;;;;;;24.67;12.90;;;;;;;18.41;100.00;101377.41;5030444;28;20176;-77
2021/09/15 00:20:07;;;;;;;22.03;11.40;;;;;;;18.34;100.00;101377.09;5030180;28;20154;-76
2021/09/15 00:22:33;;;;;;;23.03;11.17;;;;;;;18.36;100.00;101368.97;5043109;28;20211;-73
2021/09/15 00:24:59;;;;;;;15.87;10.50;;;;;;;18.38;100.00;101381.19;5046504;28;20415;-71
2021/09/15 00:27:24;;;;;;;21.57;10.93;;;;;;;18.35;100.00;101381.44;5050157;28;20703;-69
2021/09/15 00:29:51;;;;;;;28.67;10.70;;;;;;;18.23;100.00;101382.53;5049840;28;20224;-70
2021/09/15 00:32:17;;;;;;;23.67;14.07;;;;;;;18.18;100.00;101379.44;5035447;28;20273;-75
2021/09/15 00:34:42;;;;;;;27.90;13.20;;;;;;;18.14;100.00;101381.56;5010351;28;20583;-75
2021/09/15 00:37:08;;;;;;;33.40;15.40;;;;;;;18.14;100.00;101380.72;5022713;28;20177;-74
2021/09/15 00:39:33;;;;;;;23.57;15.10;;;;;;;18.12;100.00;101378.16;5028580;28;20220;-75
2021/09/15 00:41:59;;;;;;;28.57;17.73;;;;;;;18.13;100.00;101379.00;5032035;28;20691;-76
2021/09/15 00:44:24;;;;;;;29.37;17.70;;;;;;;18.13;100.00;101376.34;5044344;28;20241;-73
2021/09/15 00:46:51;;;;;;;33.63;19.00;;;;;;;18.11;100.00;101370.31;5035981;28;20181;-76
2021/09/15 00:49:17;;;;;;;28.30;20.57;;;;;;;18.08;100.00;101376.75;5033301;28;20222;-79
2021/09/15 00:51:43;;;;;;;30.83;18.23;;;;;;;18.07;100.00;101379.56;5034134;28;20404;-76
2021/09/15 00:54:10;;;;;;;24.30;17.23;;;;;;;18.02;100.00;101371.97;5034467;28;20157;-77
2021/09/15 00:56:37;;;;;;;35.10;15.63;;;;;;;18.07;100.00;101374.25;5034483;28;20778;-77
2021/09/15 00:59:02;;;;;;;24.13;13.87;;;;;;;18.03;100.00;101378.97;5019794;28;20505;-76
2021/09/15 01:01:28;;;;;;;25.70;14.27;;;;;;;18.02;100.00;101382.63;5042194;28;20486;-74
2021/09/15 01:03:54;;;;;;;24.60;13.40;;;;;;;18.05;100.00;101377.00;5045422;28;20204;-71
2021/09/15 01:06:20;;;;;;;30.77;13.50;;;;;;;18.00;100.00;101376.59;5054527;28;20165;-76
2021/09/15 01:08:46;;;;;;;19.87;12.27;;;;;;;18.01;100.00;101379.13;5051882;28;20170;-76
2021/09/15 01:11:13;;;;;;;22.97;13.07;;;;;;;18.02;100.00;101378.13;5053708;28;20164;-75
2021/09/15 01:13:39;;;;;;;24.80;12.80;;;;;;;17.98;100.00;101375.88;5042340;28;20439;-72
2021/09/15 01:16:05;;;;;;;26.80;12.10;;;;;;;17.96;100.00;101373.34;5033789;28;20432;-75
2021/09/15 01:18:31;;;;;;;24.67;12.83;;;;;;;17.96;100.00;101370.69;5045091;28;20502;-76
2021/09/15 01:20:57;;;;;;;26.73;13.10;;;;;;;17.94;100.00;101372.66;5053454;28;20497;-74
2021/09/15 01:23:23;;;;;;;33.53;14.13;;;;;;;17.94;100.00;101372.66;5044085;28;20191;-78
2021/09/15 01:25:49;;;;;;;22.67;13.13;;;;;;;17.96;100.00;101367.19;5033396;28;20392;-75
2021/09/15 01:28:15;;;;;;;27.20;12.50;;;;;;;17.94;100.00;101370.00;5035103;28;20884;-78
2021/09/15 01:30:41;;;;;;;19.43;12.60;;;;;;;17.94;100.00;101371.81;5036325;28;20919;-69
2021/09/15 01:33:11;;;;;;;31.13;13.10;;;;;;;17.90;100.00;101373.03;5046134;28;20428;-72
2021/09/15 01:35:37;;;;;;;26.83;13.20;;;;;;;17.89;100.00;101372.22;5032379;28;20437;-75
2021/09/15 01:38:02;;;;;;;28.70;13.27;;;;;;;17.88;100.00;101370.53;5025887;28;20861;-73
2021/09/15 01:40:28;;;;;;;24.00;12.37;;;;;;;17.90;100.00;101365.91;5027818;28;20179;-71
2021/09/15 01:42:53;;;;;;;32.43;11.53;;;;;;;17.92;100.00;101369.28;5042757;28;20158;-72
2021/09/15 01:45:19;;;;;;;24.83;13.20;;;;;;;17.86;100.00;101372.50;5051389;28;20184;-72
2021/09/15 01:47:45;;;;;;;32.43;13.90;;;;;;;17.84;100.00;101374.44;5035651;28;20223;-69
2021/09/15 01:50:11;;;;;;;18.67;10.60;;;;;;;17.82;100.00;101381.69;5035978;28;20607;-68
2021/09/15 01:52:38;;;;;;;24.33;12.73;;;;;;;17.84;100.00;101385.09;5040194;28;20231;-71
2021/09/15 01:55:04;;;;;;;18.13;11.17;;;;;;;17.74;100.00;101387.69;5052416;28;20407;-73
2021/09/15 01:57:30;;;;;;;20.97;12.67;;;;;;;17.71;100.00;101387.94;5052433;28;20465;-74
2021/09/15 01:59:57;;;;;;;24.43;12.63;;;;;;;17.70;100.00;101386.28;5051044;28;20384;-72
2021/09/15 02:02:23;;;;;;;34.63;13.30;;;;;;;17.73;100.00;101393.97;5036648;28;20705;-72
2021/09/15 02:04:48;;;;;;;25.80;12.47;;;;;;;17.70;100.00;101393.38;5044786;28;20407;-68
2021/09/15 02:07:14;;;;;;;21.33;11.10;;;;;;;17.64;100.00;101407.19;5039610;28;20943;-69
2021/09/15 02:09:39;;;;;;;16.87;10.83;;;;;;;17.67;100.00;101397.13;5040879;28;20169;-68
2021/09/15 02:12:05;;;;;;;29.03;11.53;;;;;;;17.63;100.00;101397.53;5033934;28;20173;-70
2021/09/15 02:14:31;;;;;;;20.60;11.80;;;;;;;17.63;100.00;101398.38;5033233;28;20185;-71
2021/09/15 02:16:56;;;;;;;19.60;11.33;;;;;;;17.64;100.00;101396.56;5035523;28;20227;-70
2021/09/15 02:19:22;;;;;;;31.07;13.73;;;;;;;17.65;100.00;101403.56;5029607;28;21829;-71
2021/09/15 02:21:47;;;;;;;21.20;12.13;;;;;;;17.69;100.00;101402.31;5034330;28;20196;-72
2021/09/15 02:24:13;;;;;;;17.97;12.63;;;;;;;17.75;100.00;101391.16;5035827;28;20172;-71
2021/09/15 02:26:38;;;;;;;23.80;13.80;;;;;;;17.74;100.00;101389.50;5032889;28;20240;-69
2021/09/15 02:29:04;;;;;;;22.70;13.30;;;;;;;17.82;100.00;101391.50;5041481;28;20205;-72
2021/09/15 02:31:31;;;;;;;20.33;12.50;;;;;;;17.88;100.00;101391.78;5037289;28;20162;-71
2021/09/15 02:33:57;;;;;;;28.53;13.53;;;;;;;17.93;100.00;101392.25;5036184;28;20185;-73
2021/09/15 02:36:23;;;;;;;23.13;15.17;;;;;;;17.95;100.00;101386.78;5051813;28;20403;-72
2021/09/15 02:38:49;;;;;;;27.23;14.57;;;;;;;17.94;100.00;101385.94;5035477;28;20530;-74
2021/09/15 02:41:14;;;;;;;24.63;13.93;;;;;;;17.96;100.00;101391.13;5025215;28;20440;-71
2021/09/15 02:43:40;;;;;;;22.90;15.70;;;;;;;17.95;100.00;101392.09;5032127;28;20478;-74
2021/09/15 02:46:05;;;;;;;20.40;14.00;;;;;;;17.94;100.00;101395.75;5042998;28;20161;-70
2021/09/15 02:48:31;;;;;;;32.17;15.33;;;;;;;17.91;100.00;101396.88;5035096;28;20170;-70
2021/09/15 02:50:56;;;;;;;24.83;14.77;;;;;;;17.87;100.00;101395.44;5029708;28;20245;-71
2021/09/15 02:53:22;;;;;;;34.57;22.77;;;;;;;17.85;100.00;101397.41;5022072;28;20167;-73
2021/09/15 02:55:48;;;;;;;35.50;23.30;;;;;;;17.82;100.00;101399.47;5027821;28;20245;-71
2021/09/15 02:58:13;;;;;;;52.67;37.70;;;;;;;17.80;100.00;101402.25;5031805;28;20701;-73
2021/09/15 03:00:40;;;;;;;49.57;35.83;;;;;;;17.78;100.00;101398.06;5026737;28;20232;-76
2021/09/15 03:03:06;;;;;;;43.50;31.20;;;;;;;17.75;100.00;101410.63;5038658;28;20166;-73
2021/09/15 03:05:32;;;;;;;36.73;26.00;;;;;;;17.76;100.00;101406.19;5030798;28;20416;-74
2021/09/15 03:07:58;;;;;;;35.60;22.63;;;;;;;17.77;100.00;101410.50;5039163;28;20172;-73
2021/09/15 03:10:24;;;;;;;31.43;20.33;;;;;;;17.76;100.00;101403.50;5051114;28;20440;-76
2021/09/15 03:12:50;;;;;;;26.30;15.93;;;;;;;17.79;100.00;101407.72;5051770;28;20415;-72
2021/09/15 03:15:16;;;;;;;21.13;15.87;;;;;;;17.83;100.00;101409.97;5043858;28;20420;-72
2021/09/15 03:17:41;;;;;;;22.47;14.43;;;;;;;17.80;100.00;101407.56;5028457;28;20519;-71
2021/09/15 03:20:07;;;;;;;22.23;14.50;;;;;;;17.81;100.00;101409.25;5037827;28;20632;-75
2021/09/15 03:22:33;;;;;;;24.30;13.30;;;;;;;17.77;100.00;101412.34;5051220;28;20694;-70
2021/09/15 03:24:58;;;;;;;22.70;15.13;;;;;;;17.82;100.00;101415.41;5051098;28;20953;-71
2021/09/15 03:27:24;;;;;;;20.20;13.70;;;;;;;17.83;100.00;101417.09;5041288;28;20210;-75
2021/09/15 03:29:51;;;;;;;26.70;14.00;;;;;;;17.84;100.00;101416.16;5032803;28;20212;-72
2021/09/15 03:32:16;;;;;;;17.87;12.93;;;;;;;17.83;100.00;101423.25;5029784;28;20553;-73
2021/09/15 03:34:42;;;;;;;22.20;13.70;;;;;;;17.83;100.00;101412.63;5033189;28;20910;-73
2021/09/15 03:37:07;;;;;;;20.20;13.80;;;;;;;17.81;100.00;101425.22;5043248;28;20173;-74
2021/09/15 03:39:33;;;;;;;27.27;13.50;;;;;;;17.84;100.00;101424.97;5043649;28;20157;-73
2021/09/15 03:41:58;;;;;;;21.97;14.57;;;;;;;17.86;100.00;101422.16;5036422;28;20188;-71
2021/09/15 03:44:24;;;;;;;22.07;13.20;;;;;;;17.91;100.00;101428.78;5031013;28;20169;-75
2021/09/15 03:46:49;;;;;;;24.03;13.70;;;;;;;17.94;100.00;101430.31;5030978;28;20521;-73
2021/09/15 03:49:15;;;;;;;20.47;13.23;;;;;;;17.96;100.00;101437.19;5026659;28;20174;-71
2021/09/15 03:51:40;;;;;;;23.40;13.37;;;;;;;17.95;100.00;101424.84;5032816;28;20169;-75
2021/09/15 03:54:06;;;;;;;24.43;13.20;;;;;;;17.98;100.00;101434.38;5026472;28;20150;-74
2021/09/15 03:56:31;;;;;;;21.30;13.10;;;;;;;17.90;100.00;101435.03;5031002;28;20169;-72
2021/09/15 03:58:57;;;;;;;19.20;12.87;;;;;;;17.97;100.00;101430.88;5030415;28;20173;-77
2021/09/15 04:01:22;;;;;;;19.20;12.33;;;;;;;17.96;100.00;101429.19;5030704;28;20286;-80
2021/09/15 04:03:48;;;;;;;23.30;14.23;;;;;;;18.06;100.00;101431.91;5031115;28;20538;-73
2021/09/15 04:06:13;;;;;;;24.10;13.53;;;;;;;18.03;100.00;101434.81;5030810;28;20170;-74
2021/09/15 04:08:39;;;;;;;21.90;13.33;;;;;;;18.12;100.00;101433.19;5030847;28;20169;-78
2021/09/15 04:11:04;;;;;;;27.27;13.77;;;;;;;18.16;100.00;101438.09;5031060;28;20165;-76
2021/09/15 04:13:30;;;;;;;22.20;12.80;;;;;;;18.25;100.00;101434.63;5031249;28;20179;-72
2021/09/15 04:15:55;;;;;;;23.97;13.90;;;;;;;18.31;100.00;101433.25;5031467;28;20166;-78
2021/09/15 04:18:21;;;;;;;16.53;13.03;;;;;;;18.39;100.00;101446.72;5035099;28;20158;-77
2021/09/15 04:20:47;;;;;;;51.90;15.77;;;;;;;18.38;100.00;101449.53;5029880;28;20588;-77
2021/09/15 04:23:30;;;;;;;20.37;14.30;;;;;;;18.40;100.00;101455.53;5040489;28;20174;-76
2021/09/15 04:31:27;;;;;;;28.30;17.67;;;;;;;18.33;100.00;101487.16;5021958;28;20397;-71
2021/09/15 04:33:54;;;;;;;29.07;17.03;;;;;;;18.35;100.00;101492.34;5014889;28;20484;-68
2021/09/15 04:36:21;;;;;;;25.70;19.07;;;;;;;18.40;100.00;101477.69;5014756;28;20540;-81
2021/09/15 04:38:48;;;;;;;31.83;17.20;;;;;;;18.45;100.00;101487.94;5038356;28;20466;-75
2021/09/15 04:41:14;;;;;;;28.90;17.30;;;;;;;18.51;100.00;101490.03;5054044;28;20424;-69
2021/09/15 04:43:43;;;;;;;29.80;17.03;;;;;;;18.61;100.00;101493.56;5040291;28;20415;-73
2021/09/15 04:46:08;;;;;;;36.70;19.13;;;;;;;18.62;100.00;101492.59;5047848;28;20165;-78
2021/09/15 04:48:34;;;;;;;25.47;17.00;;;;;;;18.59;100.00;101492.88;5052346;28;20396;-77
2021/09/15 04:51:00;;;;;;;22.37;16.63;;;;;;;18.57;100.00;101500.97;5053384;28;20169;-78
2021/09/15 04:53:25;;;;;;;24.47;15.67;;;;;;;18.75;100.00;101492.38;5053127;28;20434;-75
2021/09/15 04:55:51;;;;;;;29.07;16.00;;;;;;;18.80;100.00;101495.47;5053679;28;20627;-74
2021/09/15 04:58:16;;;;;;;38.00;18.60;;;;;;;18.93;100.00;101490.72;5054327;28;20518;-78
2021/09/15 05:00:42;;;;;;;26.23;16.77;;;;;;;19.05;100.00;101484.31;5053065;28;20544;-77
2021/09/15 05:03:08;;;;;;;34.40;16.63;;;;;;;19.12;100.00;101488.09;5030136;28;20419;-69
2021/09/15 05:05:34;;;;;;;38.63;15.33;;;;;;;19.22;100.00;101490.75;5034421;28;20162;-72
2021/09/15 05:07:59;;;;;;;27.37;15.43;;;;;;;19.33;100.00;101487.94;5041542;28;20169;-74
2021/09/15 05:10:25;;;;;;;22.57;14.50;;;;;;;19.39;100.00;101484.72;5045825;28;20150;-75
2021/09/15 05:12:57;;;;;;;31.00;16.60;;;;;;;19.49;100.00;101494.50;5021043;28;20645;-79
2021/09/15 05:15:25;;;;;;;24.23;17.10;;;;;;;19.57;100.00;101490.22;5034274;28;20553;-81
2021/09/15 05:17:51;;;;;;;38.50;21.03;;;;;;;19.67;100.00;101490.19;5033248;28;21002;-78
2021/09/15 05:20:18;;;;;;;33.63;22.50;;;;;;;20.06;100.00;101490.09;5029511;28;20492;-78
2021/09/15 05:22:49;;;;;;;33.80;21.50;;;;;;;20.21;100.00;101489.47;5031941;28;20456;-77
2021/09/15 05:25:16;;;;;;;31.30;21.57;;;;;;;20.24;100.00;101493.66;5035125;28;20423;-78
2021/09/15 05:27:41;;;;;;;36.73;22.77;;;;;;;20.21;100.00;101491.28;5053580;28;20461;-78
2021/09/15 05:30:08;;;;;;;32.17;20.90;;;;;;;20.26;100.00;101490.88;5040921;28;20468;-77
2021/09/15 05:32:34;;;;;;;29.30;16.30;;;;;;;20.31;100.00;101488.56;5029851;28;20201;-82
2021/09/15 05:34:59;;;;;;;25.93;16.97;;;;;;;20.45;100.00;101491.63;5031559;28;20831;-76
2021/09/15 05:37:25;;;;;;;29.00;17.80;;;;;;;20.60;100.00;101486.63;5028427;28;20409;-79
2021/09/15 05:39:50;;;;;;;31.77;18.13;;;;;;;20.77;100.00;101484.97;5031474;28;20163;-77
2021/09/15 05:42:16;;;;;;;20.80;15.00;;;;;;;20.89;100.00;101490.97;5013537;28;20220;-78
2021/09/15 05:44:41;;;;;;;26.47;16.27;;;;;;;20.97;100.00;101485.69;5027580;28;20177;-75
2021/09/15 05:47:07;;;;;;;22.13;14.43;;;;;;;20.98;100.00;101490.06;5030610;28;20176;-80
2021/09/15 05:49:32;;;;;;;26.63;14.13;;;;;;;20.97;100.00;101480.34;5019368;28;20630;-83
2021/09/15 05:51:58;;;;;;;25.90;14.60;;;;;;;21.03;100.00;101482.44;5025224;28;20159;-82
2021/09/15 05:54:25;;;;;;;22.47;13.63;;;;;;;21.12;100.00;101489.53;5013640;28;20167;-83
2021/09/15 05:56:50;;;;;;;22.27;13.50;;;;;;;21.22;100.00;101479.59;5020869;28;20165;-82
2021/09/15 05:59:16;;;;;;;18.20;13.17;;;;;;;21.32;100.00;101488.41;5024174;28;20420;-83
2021/09/15 06:01:41;;;;;;;21.53;12.37;;;;;;;21.45;100.00;101484.47;5013318;28;20276;-75
2021/09/15 06:04:08;;;;;;;20.07;14.17;;;;;;;21.41;100.00;101488.47;5013702;28;20175;-79
2021/09/15 06:06:34;;;;;;;23.60;13.77;;;;;;;21.46;100.00;101496.84;5016586;28;20633;-84
2021/09/15 06:08:59;;;;;;;25.13;13.93;;;;;;;21.59;100.00;101489.28;5014429;28;20432;-79
2021/09/15 06:11:26;;;;;;;26.50;15.43;;;;;;;21.69;100.00;101494.53;5013680;28;20224;-80
2021/09/15 06:13:53;;;;;;;27.43;13.30;;;;;;;21.76;100.00;101498.25;5013547;28;20489;-81
2021/09/15 06:16:19;;;;;;;19.60;13.90;;;;;;;21.71;100.00;101492.56;5014717;28;20392;-82
2021/09/15 06:18:44;;;;;;;25.60;13.80;;;;;;;21.73;100.00;101493.22;5012670;28;20402;-82
2021/09/15 06:21:10;;;;;;;21.20;13.90;;;;;;;21.86;100.00;101496.34;5012516;28;20202;-77
2021/09/15 06:23:35;;;;;;;26.60;15.23;;;;;;;21.89;100.00;101496.84;5013189;28;20165;-80
2021/09/15 06:26:01;;;;;;;20.63;14.03;;;;;;;21.89;100.00;101494.16;5013716;28;20228;-83
2021/09/15 06:28:29;;;;;;;26.37;16.93;;;;;;;21.99;100.00;101498.56;5013036;28;20206;-79
2021/09/15 06:30:55;;;;;;;17.10;12.00;;;;;;;22.05;100.00;101498.78;5013849;28;20257;-80
2021/09/15 06:33:21;;;;;;;23.87;13.83;;;;;;;22.20;100.00;101496.38;5014054;28;20445;-82
2021/09/15 06:35:47;;;;;;;19.57;14.67;;;;;;;22.40;100.00;101491.63;5013671;28;20406;-82
2021/09/15 06:38:13;;;;;;;21.47;13.87;;;;;;;22.65;100.00;101496.06;5013272;28;20305;-79
2021/09/15 06:40:39;;;;;;;31.57;15.00;;;;;;;22.78;100.00;101492.94;5012541;28;20401;-78
2021/09/15 06:43:04;;;;;;;21.80;15.37;;;;;;;22.86;100.00;101498.34;5012824;28;20155;-79
2021/09/15 06:45:30;;;;;;;21.27;13.00;;;;;;;22.88;100.00;101490.97;5011909;28;20409;-80
2021/09/15 06:47:55;;;;;;;18.70;12.70;;;;;;;22.74;100.00;101490.72;5012423;28;20181;-77
2021/09/15 06:50:21;;;;;;;30.33;13.33;;;;;;;22.75;100.00;101495.94;5012526;28;20206;-84
2021/09/15 06:52:47;;;;;;;24.00;14.30;;;;;;;22.79;100.00;101481.22;5011795;28;20155;-77
2021/09/15 06:55:12;;;;;;;22.77;13.97;;;;;;;22.85;100.00;101488.63;5010923;28;20178;-79
2021/09/15 06:57:38;;;;;;;20.20;13.50;;;;;;;22.86;100.00;101489.47;5022029;28;20208;-83
2021/09/15 07:00:06;;;;;;;24.47;12.50;;;;;;;22.89;100.00;101484.59;5029925;28;20192;-80
2021/09/15 07:02:31;;;;;;;22.23;12.80;;;;;;;22.95;100.00;101500.03;5027283;28;20201;-79
2021/09/15 07:04:58;;;;;;;24.63;13.90;;;;;;;23.02;100.00;101485.97;5032383;28;20413;-78
2021/09/15 07:07:23;;;;;;;17.60;11.90;;;;;;;23.08;100.00;101478.13;5031227;28;20192;-79
2021/09/15 07:09:49;;;;;;;19.50;14.00;;;;;;;23.23;100.00;101483.66;5025427;28;20816;-77
2021/09/15 07:12:14;;;;;;;19.43;14.00;;;;;;;23.34;100.00;101480.63;5032837;28;20542;-81
2021/09/15 07:14:40;;;;;;;18.10;12.93;;;;;;;23.48;100.00;101484.47;5032678;28;20526;-77
2021/09/15 07:17:05;;;;;;;19.40;12.23;;;;;;;23.59;100.00;101477.97;5032849;28;20166;-80
2021/09/15 07:19:31;;;;;;;21.70;11.50;;;;;;;23.68;100.00;101476.97;5032857;28;20739;-78
2021/09/15 07:21:56;;;;;;;20.33;11.80;;;;;;;23.84;100.00;101471.56;5023520;28;20209;-79
2021/09/15 07:24:22;;;;;;;15.97;12.13;;;;;;;23.90;100.00;101472.72;5024338;28;20166;-74
2021/09/15 07:26:47;;;;;;;18.97;11.80;;;;;;;23.93;100.00;101464.31;5022772;28;20793;-80
2021/09/15 07:29:13;;;;;;;16.53;10.63;;;;;;;24.05;100.00;101474.53;5032024;28;20603;-84
2021/09/15 07:31:38;;;;;;;14.90;10.47;;;;;;;24.11;100.00;101467.63;5030257;28;20197;-79
2021/09/15 07:34:05;;;;;;;16.50;11.90;;;;;;;24.30;100.00;101475.28;5032127;28;20181;-75
2021/09/15 07:36:31;;;;;;;16.43;10.83;;;;;;;24.36;100.00;101476.47;5012323;28;20181;-82
2021/09/15 07:38:57;;;;;;;17.67;12.60;;;;;;;24.49;100.00;101479.44;5013124;28;20428;-81
2021/09/15 07:41:22;;;;;;;25.57;12.80;;;;;;;24.64;100.00;101471.47;5012287;28;20853;-78
2021/09/15 07:43:48;;;;;;;18.83;11.90;;;;;;;24.80;100.00;101478.59;5010818;28;20195;-78
2021/09/15 07:46:14;;;;;;;19.33;12.10;;;;;;;24.99;100.00;101471.91;5012527;28;20154;-82
2021/09/15 07:48:40;;;;;;;22.50;13.63;;;;;;;25.17;100.00;101470.63;5013627;28;20782;-83
2021/09/15 07:51:06;;;;;;;19.47;11.00;;;;;;;25.31;100.00;101471.66;5012603;28;20420;-78
2021/09/15 07:53:32;;;;;;;22.33;10.37;;;;;;;25.34;100.00;101471.34;5012497;28;20772;-78
2021/09/15 07:55:57;;;;;;;19.60;9.50;;;;;;;25.41;100.00;101468.75;5011496;28;20190;-81
2021/09/15 07:58:24;;;;;;;19.37;9.77;;;;;;;25.45;100.00;101472.75;5017289;28;20176;-77
2021/09/15 08:00:49;;;;;;;15.00;10.20;;;;;;;25.64;100.00;101472.22;5029393;28;20161;-80
2021/09/15 08:03:15;;;;;;;15.07;13.30;;;;;;;25.89;100.00;101474.69;5029026;28;20416;-79
2021/09/15 08:05:40;;;;;;;18.83;12.70;;;;;;;26.16;100.00;101468.66;5035208;28;20196;-76
2021/09/15 08:08:11;;;;;;;16.33;13.70;;;;;;;26.29;100.00;101468.00;5029520;28;20408;-76
2021/09/15 08:10:37;;;;;;;18.10;10.50;;;;;;;26.44;100.00;101474.22;5029721;28;20166;-73
2021/09/15 08:13:02;;;;;;;23.43;12.27;;;;;;;26.45;100.00;101475.06;5031787;28;20419;-77
2021/09/15 08:15:28;;;;;;;15.13;10.10;;;;;;;26.49;100.00;101476.38;5031691;28;20161;-77
2021/09/15 08:17:54;;;;;;;15.17;10.70;;;;;;;26.48;100.00;101472.84;5040336;28;20164;-79
2021/09/15 08:20:22;;;;;;;17.13;10.90;;;;;;;26.45;100.00;101466.97;5052447;28;20404;-81
2021/09/15 08:22:48;;;;;;;18.63;11.33;;;;;;;26.42;100.00;101464.66;5052028;28;20474;-78
2021/09/15 08:25:13;;;;;;;20.93;10.43;;;;;;;26.53;100.00;101472.28;5052225;28;20396;-84
2021/09/15 08:27:39;;;;;;;14.50;10.90;;;;;;;26.60;100.00;101472.34;5052166;28;20536;-77
2021/09/15 08:30:05;;;;;;;17.30;10.57;;;;;;;26.71;100.00;101471.84;5050662;28;20213;-81
2021/09/15 08:32:31;;;;;;;19.47;11.33;;;;;;;26.92;100.00;101468.34;5051859;28;20387;-79
2021/09/15 08:34:57;;;;;;;20.03;10.80;;;;;;;27.22;100.00;101461.00;5036067;28;20413;-78
2021/09/15 08:37:22;;;;;;;16.80;11.30;;;;;;;27.41;100.00;101464.88;5012595;28;20780;-79
2021/09/15 08:39:48;;;;;;;18.53;9.57;;;;;;;27.40;100.00;101466.75;5024957;28;20227;-73
2021/09/15 08:42:14;;;;;;;11.30;9.10;;;;;;;27.28;100.00;101461.06;5029102;28;20672;-78
2021/09/15 08:44:39;;;;;;;12.73;9.70;;;;;;;27.21;100.00;101465.56;5049117;28;20176;-80
2021/09/15 08:47:06;;;;;;;14.90;10.30;;;;;;;27.08;100.00;101462.72;5037575;28;20307;-76
2021/09/15 08:49:33;;;;;;;13.40;10.17;;;;;;;26.84;100.00;101461.22;5020817;28;20169;-77
2021/09/15 08:51:58;;;;;;;19.17;10.80;;;;;;;26.54;100.00;101465.84;5029805;28;20401;-80
2021/09/15 08:54:24;;;;;;;13.47;10.40;;;;;;;26.49;100.00;101465.59;5026816;28;20435;-74
2021/09/15 08:56:50;;;;;;;14.77;9.10;;;;;;;26.38;100.00;101460.66;5011380;28;20348;-75
2021/09/15 08:59:16;;;;;;;15.70;10.50;;;;;;;26.62;100.00;101464.91;5008361;28;20162;-81
2021/09/15 09:01:45;;;;;;;14.10;10.10;;;;;;;27.04;100.00;101454.16;5010094;28;20273;-74
2021/09/15 09:04:14;;;;;;;11.63;9.10;;;;;;;27.51;100.00;101446.50;5032479;28;20240;-79
2021/09/15 09:06:40;;;;;;;10.83;9.37;;;;;;;27.59;100.00;101440.94;5032174;28;20400;-76
2021/09/15 09:09:06;;;;;;;11.33;9.40;;;;;;;27.26;100.00;101444.19;5025929;28;20397;-74
2021/09/15 09:11:34;;;;;;;15.07;9.60;;;;;;;27.04;100.00;101454.16;5040089;28;20408;-74
2021/09/15 09:14:05;;;;;;;14.80;10.03;;;;;;;27.00;100.00;101460.97;5052089;28;20170;-74
2021/09/15 09:16:41;;;;;;;26.00;10.87;;;;;;;26.67;100.00;101468.69;5035335;28;20478;-77
2021/09/15 09:19:09;;;;;;;16.80;10.03;;;;;;;26.49;100.00;101466.41;5053445;28;20901;-77
2021/09/15 09:21:36;;;;;;;28.83;12.50;;;;;;;26.06;100.00;101492.34;5039862;28;20534;-77
2021/09/15 09:24:08;;;;;;;74.80;23.03;;;;;;;25.71;100.00;101510.91;5032304;28;20396;-74
2021/09/15 09:26:54;;;;;;;48.53;20.83;;;;;;;24.53;100.00;101504.09;5035265;28;20477;-75
2021/09/15 09:29:29;;;;;;;28.23;13.70;;;;;;;23.50;100.00;101494.06;5042262;28;20444;-82
2021/09/15 09:32:16;;;;;;;37.93;15.37;;;;;;;22.60;100.00;101506.47;5031878;28;20455;-71
2021/09/15 09:34:51;;;;;;;19.57;11.00;;;;;;;22.26;100.00;101495.75;5033241;28;21371;-73
2021/09/15 09:37:19;;;;;;;16.63;10.63;;;;;;;21.97;100.00;101482.69;5022001;28;20413;-81
2021/09/15 09:39:49;;;;;;;25.77;11.17;;;;;;;21.71;100.00;101480.03;5023707;28;20456;-77
2021/09/15 09:42:24;;;;;;;14.97;11.67;;;;;;;21.79;100.00;101488.09;5014615;28;20460;-77
2021/09/15 09:44:50;;;;;;;22.67;16.13;;;;;;;21.85;100.00;101498.19;5011394;28;20455;-79
2021/09/15 09:47:20;;;;;;;19.73;12.37;;;;;;;21.90;100.00;101500.38;5018395;28;20401;-75
2021/09/15 09:50:14;;;;;;;22.47;13.90;;;;;;;21.92;100.00;101509.09;5026727;28;20413;-73
2021/09/15 09:53:00;;;;;;;24.00;11.90;;;;;;;22.01;100.00;101509.97;5014951;28;20406;-75
2021/09/15 09:55:32;;;;;;;19.70;10.70;;;;;;;22.21;100.00;101505.25;5038254;28;20831;-77
2021/09/15 09:57:58;;;;;;;23.00;12.93;;;;;;;22.39;100.00;101508.72;5032251;28;20827;-76
2021/09/15 10:00:24;;;;;;;16.60;10.30;;;;;;;22.86;100.00;101495.66;5039884;28;20782;-81
2021/09/15 10:02:50;;;;;;;20.03;9.50;;;;;;;23.21;100.00;101474.94;5030055;28;20558;-80
2021/09/15 10:05:18;;;;;;;23.03;11.53;;;;;;;23.49;100.00;101470.91;5032944;28;20902;-76
2021/09/15 10:07:45;;;;;;;21.00;11.80;;;;;;;24.08;100.00;101467.97;5042062;28;20878;-81
2021/09/15 10:10:13;;;;;;;23.37;12.43;;;;;;;24.46;100.00;101469.03;5028064;28;20417;-74
2021/09/15 10:12:39;;;;;;;23.93;13.07;;;;;;;24.66;100.00;101468.59;5032001;28;20945;-81
2021/09/15 10:15:10;;;;;;;14.20;10.80;;;;;;;24.85;100.00;101468.97;5026738;28;20510;-76
2021/09/15 10:17:48;;;;;;;13.33;11.30;;;;;;;24.86;100.00;101454.53;5029350;28;20408;-81
2021/09/15 10:20:14;;;;;;;18.33;11.47;;;;;;;24.82;100.00;101463.13;5031637;28;20443;-77
2021/09/15 10:22:45;;;;;;;13.90;10.87;;;;;;;24.69;100.00;101466.38;5032721;28;20462;-72
2021/09/15 10:25:10;;;;;;;18.83;12.53;;;;;;;24.58;100.00;101472.16;5038692;28;20412;-78
2021/09/15 10:27:59;;;;;;;17.93;12.27;;;;;;;24.59;100.00;101469.28;5052443;28;20513;-79
2021/09/15 10:30:46;;;;;;;16.93;11.87;;;;;;;24.51;100.00;101469.34;5051651;28;20213;-73
2021/09/15 10:33:37;;;;;;;21.00;12.37;;;;;;;24.48;100.00;101463.47;5046767;28;20551;-69
2021/09/15 10:36:11;;;;;;;17.80;12.20;;;;;;;24.50;100.00;101473.03;5031629;28;20448;-79
2021/09/15 10:39:01;;;;;;;20.80;12.90;;;;;;;24.58;100.00;101472.16;5021089;28;20408;-72
2021/09/15 10:41:33;;;;;;;15.80;12.57;;;;;;;24.79;100.00;101461.63;5015794;28;20754;-77
2021/09/15 10:44:15;;;;;;;26.63;16.37;;;;;;;24.96;100.00;101464.19;5031500;28;20404;-75
2021/09/15 10:46:43;;;;;;;20.53;13.30;;;;;;;25.18;100.00;101455.31;5036050;28;20775;-74
2021/09/15 10:49:23;;;;;;;17.00;11.80;;;;;;;25.50;100.00;101451.50;5030827;28;21034;-80
2021/09/15 10:52:09;;;;;;;18.50;11.40;;;;;;;26.05;100.00;101442.19;5040575;28;20420;-75
2021/09/15 10:54:54;;;;;;;21.70;13.83;;;;;;;26.66;100.00;101445.44;5051197;28;20887;-74
2021/09/15 10:57:25;;;;;;;19.63;13.80;;;;;;;26.94;100.00;101439.31;5028596;28;20401;-74
2021/09/15 10:59:58;;;;;;;19.40;14.17;;;;;;;26.91;100.00;101440.53;5028208;28;20424;-80
2021/09/15 11:02:30;;;;;;;27.67;12.83;;;;;;;26.72;100.00;101436.59;5029499;28;20467;-78
2021/09/15 11:04:57;;;;;;;18.50;13.63;;;;;;;26.51;100.00;101448.19;5024752;28;20401;-76
2021/09/15 11:07:47;;;;;;;20.00;12.30;;;;;;;26.44;100.00;101457.22;5028902;28;20760;-77